Sun Globe — 9HA2857 — position and weather

sailwx.info

Track history (hours):
 
Tides and Currents Weather Stations Pressure Air Temp Water Temp Dewpoint Dewpoint Depression Visibility Wind Speed Wind Dir Waves Ship Positions

Sun Globe

Last reported at 2017-May-24 18:04 UTC. Time now 2017-May-25 05:08 UTC.
Position N 26°25' W 076°29'.

Length 190 m; draft 8.6 m.

Type: Cargo ship. MMSI: 256415000.

Date/timePositionNaut miles runAvg speedWind from/ knotsBaromVisibWave heightAir tempDewpointWater temp
2017-May-24 18:04N 26°25' W 076°29'111.3
2017-May-24 18:01N 26°26' W 076°28'  
2017-May-21 16:19N 39°16' W 072°57'411.9
2017-May-21 15:59N 39°20' W 072°59'611.9
2017-May-21 15:29N 39°25' W 073°02'612.0
2017-May-21 15:00N 39°30' W 073°05'912.1
2017-May-21 14:15N 39°39' W 073°09'2012.1
2017-May-21 12:37N 39°57' W 073°20'112.4
2017-May-21 12:30N 39°58' W 073°21'612.1
2017-May-21 11:58N 40°04' W 073°25'612.2
2017-May-21 11:31N 40°08' W 073°30'612.2
2017-May-21 10:59N 40°13' W 073°35'612.1
2017-May-21 10:30N 40°18' W 073°39'612.0
2017-May-21 10:00N 40°23' W 073°44'611.6
2017-May-21 09:31N 40°27' W 073°50'510.4
2017-May-21 09:00N 40°29' W 073°55'612.1
2017-May-21 08:30N 40°33' W 074°02'5 9.9
2017-May-21 08:01N 40°38' W 074°04'0 0.5
2017-May-21 07:26N 40°38' W 074°04'0 0.0
2017-May-21 06:59N 40°38' W 074°04'0 0.0
2017-May-21 06:29N 40°38' W 074°04'0 0.1
2017-May-21 05:59N 40°38' W 074°04'0 0.1
2017-May-21 05:29N 40°38' W 074°04'0 0.3
2017-May-21 04:59N 40°38' W 074°04'0 0.1
2017-May-21 04:29N 40°38' W 074°04'0 0.2
2017-May-21 04:00N 40°38' W 074°04'1 1.4
2017-May-21 03:31N 40°39' W 074°03'2 3.3
2017-May-21 03:01N 40°40' W 074°03'3 5.2
2017-May-21 02:30N 40°43' W 074°02'611.4
2017-May-21 02:00N 40°48' W 073°59'611.3
2017-May-21 01:30N 40°53' W 073°56'4 7.0
2017-May-21 01:00N 40°57' W 073°54'  
2017-May-15 15:11N 41°03' W 073°53'3 9.5
2017-May-15 14:51N 40°59' W 073°54'7 8.4
2017-May-15 14:00N 40°53' W 073°56'510.1
2017-May-15 13:30N 40°48' W 073°59'4 8.3
2017-May-15 13:00N 40°44' W 074°01'4 8.4
2017-May-15 12:30N 40°40' W 074°03'5 9.1
2017-May-15 12:00N 40°36' W 074°02'510.6
2017-May-15 11:30N 40°31' W 073°59'612.0
2017-May-15 11:00N 40°28' W 073°52'4 8.1
2017-May-15 10:30N 40°27' W 073°47'4 7.7
2017-May-15 09:59N 40°30' W 073°44'3 5.9
2017-May-15 09:28N 40°32' W 073°41'0 0.1
2017-May-15 08:52N 40°32' W 073°41'0 0.0
2017-May-15 08:22N 40°32' W 073°41'0 0.0
2017-May-15 07:43N 40°32' W 073°41'0 0.0
2017-May-15 07:28N 40°32' W 073°41'0 0.0
2017-May-15 06:58N 40°32' W 073°41'0 0.0
2017-May-15 06:25N 40°32' W 073°41'0 0.0
2017-May-15 05:58N 40°32' W 073°41'0 0.0
2017-May-15 05:28N 40°32' W 073°41'0 0.0
2017-May-15 04:52N 40°32' W 073°41'0 0.0
2017-May-15 04:22N 40°32' W 073°41'0 0.0
2017-May-15 03:55N 40°32' W 073°41'0 0.0
2017-May-15 03:22N 40°32' W 073°41'0 0.0
2017-May-15 02:37N 40°32' W 073°41'0 0.0
2017-May-15 02:25N 40°32' W 073°41'0 0.0
2017-May-15 01:55N 40°32' W 073°41'0 0.0
2017-May-14 23:31N 40°32' W 073°41'0 0.1
2017-May-14 23:25N 40°32' W 073°41'0 0.0
2017-May-14 22:46N 40°32' W 073°41'0 0.1
2017-May-14 21:10N 40°32' W 073°41'0 0.1
2017-May-14 20:55N 40°32' W 073°41'0 0.0
2017-May-14 19:25N 40°32' W 073°41'0 0.1
2017-May-14 18:52N 40°32' W 073°41'0 0.0
2017-May-14 18:25N 40°32' W 073°41'  
Track history (hours):
 
Tides and Currents Weather Stations Pressure Air Temp Water Temp Dewpoint Dewpoint Depression Visibility Wind Speed Wind Dir Waves Ship Positions

Sun Globe

Last reported at 2017-May-24 18:04 UTC. Time now 2017-May-25 05:08 UTC.
Position N 26°25' W 076°29'.

Length 190 m; draft 8.6 m.

Type: Cargo ship. MMSI: 256415000.

Date/timePositionNaut miles runAvg speedWind from/ knotsBaromVisibWave heightAir tempDewpointWater temp
2017-May-24 18:04N 26°25' W 076°29'111.3
2017-May-24 18:01N 26°26' W 076°28'  
2017-May-21 16:19N 39°16' W 072°57'411.9
2017-May-21 15:59N 39°20' W 072°59'611.9
2017-May-21 15:29N 39°25' W 073°02'612.0
2017-May-21 15:00N 39°30' W 073°05'912.1
2017-May-21 14:15N 39°39' W 073°09'2012.1
2017-May-21 12:37N 39°57' W 073°20'112.4
2017-May-21 12:30N 39°58' W 073°21'612.1
2017-May-21 11:58N 40°04' W 073°25'612.2
2017-May-21 11:31N 40°08' W 073°30'612.2
2017-May-21 10:59N 40°13' W 073°35'612.1
2017-May-21 10:30N 40°18' W 073°39'612.0
2017-May-21 10:00N 40°23' W 073°44'611.6
2017-May-21 09:31N 40°27' W 073°50'510.4
2017-May-21 09:00N 40°29' W 073°55'612.1
2017-May-21 08:30N 40°33' W 074°02'5 9.9
2017-May-21 08:01N 40°38' W 074°04'0 0.5
2017-May-21 07:26N 40°38' W 074°04'0 0.0
2017-May-21 06:59N 40°38' W 074°04'0 0.0
2017-May-21 06:29N 40°38' W 074°04'0 0.1
2017-May-21 05:59N 40°38' W 074°04'0 0.1
2017-May-21 05:29N 40°38' W 074°04'0 0.3
2017-May-21 04:59N 40°38' W 074°04'0 0.1
2017-May-21 04:29N 40°38' W 074°04'0 0.2
2017-May-21 04:00N 40°38' W 074°04'1 1.4
2017-May-21 03:31N 40°39' W 074°03'2 3.3
2017-May-21 03:01N 40°40' W 074°03'3 5.2
2017-May-21 02:30N 40°43' W 074°02'611.4
2017-May-21 02:00N 40°48' W 073°59'611.3
2017-May-21 01:30N 40°53' W 073°56'4 7.0
2017-May-21 01:00N 40°57' W 073°54'  
2017-May-15 15:11N 41°03' W 073°53'3 9.5
2017-May-15 14:51N 40°59' W 073°54'7 8.4
2017-May-15 14:00N 40°53' W 073°56'510.1
2017-May-15 13:30N 40°48' W 073°59'4 8.3
2017-May-15 13:00N 40°44' W 074°01'4 8.4
2017-May-15 12:30N 40°40' W 074°03'5 9.1
2017-May-15 12:00N 40°36' W 074°02'510.6
2017-May-15 11:30N 40°31' W 073°59'612.0
2017-May-15 11:00N 40°28' W 073°52'4 8.1
2017-May-15 10:30N 40°27' W 073°47'4 7.7
2017-May-15 09:59N 40°30' W 073°44'3 5.9
2017-May-15 09:28N 40°32' W 073°41'0 0.1
2017-May-15 08:52N 40°32' W 073°41'0 0.0
2017-May-15 08:22N 40°32' W 073°41'0 0.0
2017-May-15 07:43N 40°32' W 073°41'0 0.0
2017-May-15 07:28N 40°32' W 073°41'0 0.0
2017-May-15 06:58N 40°32' W 073°41'0 0.0
2017-May-15 06:25N 40°32' W 073°41'0 0.0
2017-May-15 05:58N 40°32' W 073°41'0 0.0
2017-May-15 05:28N 40°32' W 073°41'0 0.0
2017-May-15 04:52N 40°32' W 073°41'0 0.0
2017-May-15 04:22N 40°32' W 073°41'0 0.0
2017-May-15 03:55N 40°32' W 073°41'0 0.0
2017-May-15 03:22N 40°32' W 073°41'0 0.0
2017-May-15 02:37N 40°32' W 073°41'0 0.0
2017-May-15 02:25N 40°32' W 073°41'0 0.0
2017-May-15 01:55N 40°32' W 073°41'0 0.0
2017-May-14 23:31N 40°32' W 073°41'0 0.1
2017-May-14 23:25N 40°32' W 073°41'0 0.0
2017-May-14 22:46N 40°32' W 073°41'0 0.1
2017-May-14 21:10N 40°32' W 073°41'0 0.1
2017-May-14 20:55N 40°32' W 073°41'0 0.0
2017-May-14 19:25N 40°32' W 073°41'0 0.1
2017-May-14 18:52N 40°32' W 073°41'0 0.0
2017-May-14 18:25N 40°32' W 073°41'  

Dump ship's entire track history